createdAt,value
2019-05-11T00:01:27.428Z,90.43
2019-05-11T00:03:54.310Z,89.76
2019-05-11T00:06:21.146Z,88.65
2019-05-11T00:08:48.181Z,87.52
2019-05-11T00:11:15.129Z,88.35
2019-05-11T00:13:41.891Z,88.10
2019-05-11T00:16:08.787Z,88.20
2019-05-11T00:18:35.572Z,88.73
2019-05-11T00:21:02.610Z,88.44
2019-05-11T00:23:29.368Z,88.83
2019-05-11T00:25:56.231Z,88.50
2019-05-11T00:28:23.122Z,88.60
2019-05-11T00:30:50.191Z,87.64
2019-05-11T00:33:16.968Z,87.61
2019-05-11T00:35:44.021Z,87.51
2019-05-11T00:38:10.811Z,87.74
2019-05-11T00:40:37.642Z,87.70
2019-05-11T00:43:04.531Z,87.29
2019-05-11T00:45:31.406Z,87.91
2019-05-11T00:47:58.383Z,86.13
2019-05-11T00:50:38.027Z,85.84
2019-05-11T00:52:54.343Z,86.30
2019-05-11T00:55:21.235Z,85.87
2019-05-11T00:57:48.206Z,85.29
2019-05-11T01:00:15.728Z,85.91
2019-05-11T01:02:42.748Z,85.19
2019-05-11T01:05:09.878Z,85.33
2019-05-11T01:07:36.670Z,85.09
2019-05-11T01:10:21.798Z,83.84
2019-05-11T01:12:36.224Z,81.63
2019-05-11T01:15:03.707Z,81.62
2019-05-11T01:17:30.477Z,82.52
2019-05-11T01:19:58.524Z,83.18
2019-05-11T01:22:25.522Z,82.11
2019-05-11T01:24:52.722Z,81.96
2019-05-11T01:27:19.511Z,82.72
2019-05-11T01:29:46.337Z,83.89
2019-05-11T01:32:14.311Z,83.58
2019-05-11T01:34:41.226Z,84.56
2019-05-11T01:37:08.105Z,84.20
2019-05-11T01:39:34.885Z,78.67
2019-05-11T01:42:01.639Z,81.86
2019-05-11T01:44:28.512Z,81.79
2019-05-11T01:46:55.310Z,83.72
2019-05-11T01:49:22.288Z,82.70
2019-05-11T01:51:49.070Z,83.17
2019-05-11T01:54:15.833Z,82.45
2019-05-11T01:56:42.621Z,81.61
2019-05-11T01:59:09.591Z,83.08
2019-05-11T02:01:36.370Z,83.59
2019-05-11T02:04:03.449Z,84.32
2019-05-11T02:06:30.230Z,83.21
2019-05-11T02:08:57.583Z,82.76
2019-05-11T02:11:24.405Z,83.69
2019-05-11T02:13:51.253Z,83.70
2019-05-11T02:16:18.209Z,84.38
2019-05-11T02:18:45.113Z,82.95
2019-05-11T02:21:11.890Z,84.24
2019-05-11T02:23:38.720Z,83.08
2019-05-11T02:26:05.557Z,83.97
2019-05-11T02:28:32.424Z,83.40
2019-05-11T02:30:59.230Z,82.86
2019-05-11T02:33:26.134Z,82.94
2019-05-11T02:35:53.000Z,82.10
2019-05-11T02:38:19.890Z,82.79
2019-05-11T02:40:46.686Z,82.13
2019-05-11T02:43:13.727Z,81.81
2019-05-11T02:45:41.945Z,81.42
2019-05-11T02:48:09.565Z,82.17
2019-05-11T02:50:37.236Z,81.01
2019-05-11T02:53:04.597Z,82.02
2019-05-11T02:55:32.945Z,81.67
2019-05-11T02:58:00.237Z,82.28
2019-05-11T03:00:36.020Z,82.31
2019-05-11T03:03:02.785Z,82.70
2019-05-11T03:05:29.884Z,82.71
2019-05-11T03:07:57.167Z,83.97
2019-05-11T03:10:24.030Z,82.27
2019-05-11T03:12:50.896Z,82.70
2019-05-11T03:15:17.871Z,81.54
2019-05-11T03:17:44.652Z,81.79
2019-05-11T03:20:11.548Z,82.13
2019-05-11T03:22:38.449Z,81.57
2019-05-11T03:25:05.347Z,80.73
2019-05-11T03:27:32.232Z,81.22
2019-05-11T03:30:01.142Z,82.01
2019-05-11T03:32:28.899Z,82.77
2019-05-11T03:34:55.945Z,81.48
2019-05-11T03:37:22.967Z,81.32
2019-05-11T03:39:49.780Z,82.30
2019-05-11T03:42:16.585Z,83.81
2019-05-11T03:44:44.473Z,84.47
2019-05-11T03:47:11.251Z,83.46
2019-05-11T03:49:38.059Z,82.89
2019-05-11T03:52:04.865Z,83.08
2019-05-11T03:54:31.746Z,83.13
2019-05-11T03:56:58.534Z,82.55
2019-05-11T03:59:25.445Z,82.85
2019-05-11T04:01:52.241Z,82.96
2019-05-11T04:04:19.083Z,83.16
2019-05-11T04:06:45.848Z,82.57
2019-05-11T04:09:12.624Z,82.29
2019-05-11T04:11:39.358Z,82.80
2019-05-11T04:14:06.188Z,81.35
2019-05-11T04:16:33.013Z,81.23
2019-05-11T04:18:59.784Z,80.51
2019-05-11T04:21:26.678Z,79.75
2019-05-11T04:23:53.480Z,79.26
2019-05-11T04:26:20.291Z,78.33
2019-05-11T04:28:48.203Z,75.44
2019-05-11T04:31:15.008Z,77.05
2019-05-11T04:33:41.875Z,76.64
2019-05-11T04:36:08.626Z,75.35
2019-05-11T04:38:35.451Z,77.31
2019-05-11T04:41:02.249Z,76.77
2019-05-11T04:43:29.078Z,76.82
2019-05-11T04:45:55.834Z,76.22
2019-05-11T04:48:22.584Z,76.65
2019-05-11T04:50:49.533Z,74.10
2019-05-11T04:53:16.366Z,73.71
2019-05-11T04:55:43.128Z,71.58
2019-05-11T04:58:09.927Z,69.74
2019-05-11T05:00:36.697Z,68.82
2019-05-11T05:03:03.643Z,68.00
2019-05-11T05:05:30.465Z,67.44
2019-05-11T05:08:08.986Z,68.74
2019-05-11T05:10:26.012Z,68.44
2019-05-11T05:12:57.887Z,69.36
2019-05-11T05:15:22.005Z,69.40
2019-05-11T05:17:48.784Z,67.92
2019-05-11T05:20:15.687Z,66.06
2019-05-11T05:22:42.487Z,65.07
2019-05-11T05:25:09.284Z,66.96
2019-05-11T05:27:36.039Z,66.12
2019-05-11T05:30:04.356Z,64.79
2019-05-11T05:32:31.279Z,65.04
2019-05-11T05:34:58.203Z,65.94
2019-05-11T05:37:25.197Z,65.32
2019-05-11T05:39:52.066Z,65.80
2019-05-11T05:42:18.875Z,65.73
2019-05-11T05:44:45.683Z,66.53
2019-05-11T05:47:12.532Z,67.25
2019-05-11T05:49:39.291Z,66.62
2019-05-11T05:52:06.423Z,67.82
2019-05-11T05:54:33.539Z,67.58
2019-05-11T05:57:00.326Z,68.55
2019-05-11T05:59:27.082Z,67.00
2019-05-11T06:01:53.922Z,64.24
2019-05-11T06:04:20.666Z,65.33
2019-05-11T06:06:47.564Z,67.00
2019-05-11T06:09:14.512Z,66.90
2019-05-11T06:11:41.362Z,68.11
2019-05-11T06:14:08.116Z,67.10
2019-05-11T06:16:34.847Z,67.30
2019-05-11T06:19:01.626Z,66.49
2019-05-11T06:21:28.975Z,64.18
2019-05-11T06:23:56.248Z,65.08
2019-05-11T06:26:23.005Z,64.92
2019-05-11T06:28:49.749Z,62.24
2019-05-11T06:31:16.574Z,63.49
2019-05-11T06:33:43.340Z,62.27
2019-05-11T06:36:10.209Z,62.63
2019-05-11T06:38:36.967Z,63.37
2019-05-11T06:41:03.784Z,64.30
2019-05-11T06:43:30.525Z,63.95
2019-05-11T06:45:57.848Z,66.02
2019-05-11T06:48:25.009Z,63.91
2019-05-11T06:50:51.854Z,64.00
2019-05-11T06:53:18.620Z,65.29
2019-05-11T06:55:45.412Z,64.95
2019-05-11T06:58:12.215Z,64.72
2019-05-11T07:00:38.974Z,58.73
2019-05-11T07:03:05.755Z,61.38
2019-05-11T07:05:32.637Z,59.65
2019-05-11T07:07:59.443Z,62.63
2019-05-11T07:10:26.263Z,62.24
2019-05-11T07:12:53.369Z,62.34
2019-05-11T07:15:21.298Z,63.22
2019-05-11T07:17:48.152Z,63.25
2019-05-11T07:20:15.068Z,59.54
2019-05-11T07:22:41.824Z,60.27
2019-05-11T07:25:08.604Z,58.46
2019-05-11T07:27:35.562Z,58.89
2019-05-11T07:30:06.444Z,57.69
2019-05-11T07:32:33.280Z,58.88
2019-05-11T07:35:00.289Z,59.43
2019-05-11T07:37:28.028Z,57.22
2019-05-11T07:39:54.999Z,56.19
2019-05-11T07:42:22.010Z,54.75
2019-05-11T07:44:48.705Z,55.33
2019-05-11T07:47:15.452Z,57.56
2019-05-11T07:49:42.202Z,57.64
2019-05-11T07:52:09.114Z,56.87
2019-05-11T07:54:38.365Z,57.04
2019-05-11T07:57:04.955Z,55.27
2019-05-11T07:59:31.729Z,55.16
2019-05-11T08:01:58.591Z,58.23
2019-05-11T08:04:25.363Z,55.23
2019-05-11T08:06:52.359Z,56.66
2019-05-11T08:09:40.506Z,54.63
2019-05-11T08:12:22.201Z,56.02
2019-05-11T08:15:24.854Z,54.26
2019-05-11T08:17:52.110Z,54.65
2019-05-11T08:20:19.539Z,55.32
2019-05-11T08:22:48.170Z,55.44
2019-05-11T08:31:29.327Z,55.13
2019-05-11T08:40:51.030Z,51.74
2019-05-11T08:43:38.974Z,51.74
2019-05-11T08:46:09.923Z,51.71
2019-05-11T08:48:38.953Z,52.53
2019-05-11T08:51:08.521Z,52.53
2019-05-11T08:53:38.754Z,54.11
2019-05-11T08:56:50.953Z,53.01
2019-05-11T08:59:23.636Z,53.20
2019-05-11T09:11:16.048Z,53.67
2019-05-11T09:37:05.136Z,48.37
2019-05-11T09:47:27.775Z,50.80
2019-05-11T09:50:00.307Z,46.80
2019-05-11T09:52:41.808Z,46.98
2019-05-11T09:55:10.504Z,48.90
2019-05-11T09:58:19.547Z,48.94
2019-05-11T10:00:32.068Z,48.02
2019-05-11T10:03:08.263Z,50.90
2019-05-11T10:05:51.748Z,47.82
2019-05-11T10:35:00.012Z,43.03
2019-05-11T10:57:03.271Z,46.40
2019-05-11T11:02:25.085Z,45.48
2019-05-11T11:04:54.891Z,41.29
2019-05-11T11:14:13.990Z,44.83
2019-05-11T11:21:22.945Z,38.08
2019-05-11T11:27:29.109Z,39.82
2019-05-11T11:29:58.592Z,39.67
2019-05-11T11:32:27.898Z,41.65
2019-05-11T11:34:57.737Z,40.39
2019-05-11T11:37:25.569Z,41.22
2019-05-11T11:39:53.157Z,40.23
2019-05-11T11:42:21.022Z,41.69
2019-05-11T11:44:48.791Z,39.99
2019-05-11T11:47:21.278Z,39.14
2019-05-11T11:49:47.655Z,40.28
2019-05-11T11:52:16.089Z,38.28
2019-05-11T11:55:08.509Z,40.05
2019-05-11T11:57:40.189Z,37.58
2019-05-11T12:00:09.571Z,38.46
2019-05-11T12:02:38.758Z,38.70
2019-05-11T12:05:08.956Z,38.74
2019-05-11T12:07:38.636Z,38.78
2019-05-11T12:10:08.004Z,38.96
2019-05-11T12:12:35.631Z,36.03
2019-05-11T12:15:04.632Z,37.39
2019-05-11T12:17:32.611Z,38.03
2019-05-11T12:20:00.707Z,38.07
2019-05-11T12:22:29.079Z,36.40
2019-05-11T12:24:58.932Z,38.79
2019-05-11T12:27:28.584Z,36.54
2019-05-11T12:29:58.170Z,37.67
2019-05-11T12:32:45.948Z,36.86
2019-05-11T12:35:14.415Z,38.51
2019-05-11T12:37:42.178Z,39.83
2019-05-11T12:40:10.664Z,39.14
2019-05-11T12:42:38.546Z,37.43
2019-05-11T12:45:07.729Z,38.27
2019-05-11T12:47:35.507Z,38.36
2019-05-11T12:50:05.027Z,37.78
2019-05-11T12:52:32.639Z,35.94
2019-05-11T12:55:00.597Z,36.59
2019-05-11T12:57:28.509Z,37.46
2019-05-11T12:59:58.273Z,35.04
2019-05-11T13:02:27.469Z,35.00
2019-05-11T13:04:55.366Z,36.10
2019-05-11T13:07:22.927Z,36.83
2019-05-11T13:09:50.820Z,35.53
2019-05-11T13:12:19.092Z,38.10
2019-05-11T13:14:48.898Z,36.61
2019-05-11T13:17:18.732Z,35.63
2019-05-11T13:19:47.954Z,36.55
2019-05-11T13:22:18.306Z,35.75
2019-05-11T13:24:48.095Z,35.92
2019-05-11T13:27:17.931Z,36.73
2019-05-11T13:29:45.403Z,35.96
2019-05-11T13:32:13.265Z,36.70
2019-05-11T13:34:40.947Z,37.56
2019-05-11T13:37:08.707Z,35.76
2019-05-11T13:39:38.509Z,36.16
2019-05-11T13:42:08.168Z,36.51
2019-05-11T13:44:35.974Z,37.08
2019-05-11T13:47:03.963Z,37.27
2019-05-11T13:49:32.565Z,33.99
2019-05-11T13:52:00.707Z,35.42
2019-05-11T13:54:29.761Z,36.66
2019-05-11T13:56:57.818Z,36.97
2019-05-11T13:59:27.860Z,37.97
2019-05-11T14:01:55.136Z,37.96
2019-05-11T14:04:22.911Z,38.20
2019-05-11T14:06:50.768Z,38.21
2019-05-11T14:09:18.702Z,38.33
2019-05-11T14:11:47.833Z,38.15
2019-05-11T14:14:18.192Z,36.85
2019-05-11T14:16:48.316Z,35.98
2019-05-11T14:19:17.606Z,37.74
2019-05-11T14:21:44.931Z,35.17
2019-05-11T14:24:13.210Z,35.39
2019-05-11T14:26:40.988Z,35.79
2019-05-11T14:29:09.620Z,35.94
2019-05-11T14:31:38.687Z,34.75
2019-05-11T14:34:08.769Z,36.54
2019-05-11T14:36:38.512Z,35.04
2019-05-11T14:39:08.363Z,36.51
2019-05-11T14:41:38.073Z,35.70
2019-05-11T14:44:08.762Z,38.51
2019-05-11T14:46:38.250Z,35.82
2019-05-11T14:49:07.726Z,37.00
2019-05-11T14:51:35.401Z,37.25
2019-05-11T14:54:03.068Z,38.66
2019-05-11T14:56:30.739Z,36.54
2019-05-11T14:58:58.489Z,36.81
2019-05-11T15:01:25.950Z,37.60
2019-05-11T15:03:53.936Z,37.16
2019-05-11T15:06:21.781Z,37.63
2019-05-11T15:08:49.613Z,36.08
2019-05-11T15:11:19.126Z,36.76
2019-05-11T15:13:48.828Z,35.31
2019-05-11T15:16:18.483Z,36.46
2019-05-11T15:18:48.242Z,37.84
2019-05-11T15:21:15.448Z,38.22
2019-05-11T15:23:43.095Z,40.07
2019-05-11T15:26:10.966Z,40.10
2019-05-11T15:28:39.642Z,38.37
2019-05-11T15:31:08.187Z,38.46
2019-05-11T15:33:38.028Z,38.48
2019-05-11T15:36:07.450Z,38.52
2019-05-11T15:38:37.691Z,38.85
2019-05-11T15:41:04.728Z,39.66
2019-05-11T15:43:32.473Z,40.58
2019-05-11T15:46:00.341Z,38.43
2019-05-11T15:48:28.948Z,39.48
2019-05-11T15:50:57.777Z,39.95
2019-05-11T15:53:25.986Z,38.22
2019-05-11T15:55:53.631Z,40.08
2019-05-11T15:58:21.792Z,39.52
2019-05-11T16:00:49.907Z,40.00
2019-05-11T16:03:18.601Z,40.37
2019-05-11T16:05:47.931Z,40.08
2019-05-11T16:08:18.633Z,40.50
2019-05-11T16:10:45.636Z,40.25
2019-05-11T16:13:13.422Z,41.44
2019-05-11T16:15:41.196Z,41.25
2019-05-11T16:18:09.054Z,41.06
2019-05-11T16:20:36.722Z,42.73
2019-05-11T16:23:04.560Z,42.72
2019-05-11T16:25:32.348Z,42.71
2019-05-11T16:27:59.904Z,43.08
2019-05-11T16:30:28.726Z,43.36
2019-05-11T16:32:58.103Z,43.10
2019-05-11T16:35:27.991Z,42.55
2019-05-11T16:37:55.788Z,42.85
2019-05-11T16:40:23.637Z,42.98
2019-05-11T16:42:51.404Z,43.72
2019-05-11T16:45:19.637Z,50.43
2019-05-11T16:47:48.343Z,52.12
2019-05-11T16:50:18.070Z,50.97
2019-05-11T16:52:48.184Z,50.94
2019-05-11T16:55:18.064Z,53.49
2019-05-11T16:57:48.303Z,50.65
2019-05-11T17:00:16.397Z,52.69
2019-05-11T17:02:43.967Z,54.34
2019-05-11T17:05:25.347Z,54.39
2019-05-11T17:07:41.426Z,56.19
2019-05-11T17:10:09.413Z,56.50
2019-05-11T17:12:38.572Z,57.71
2019-05-11T17:15:08.937Z,59.53
2019-05-11T17:17:36.901Z,59.53
2019-05-11T17:20:07.984Z,59.18
2019-05-11T17:22:38.763Z,61.13
2019-05-11T17:25:08.566Z,61.09
2019-05-11T17:27:37.648Z,62.88
2019-05-11T17:30:08.654Z,63.94
2019-05-11T17:32:38.311Z,63.77
2019-05-11T17:35:08.472Z,66.50
2019-05-11T17:37:38.115Z,66.93
2019-05-11T17:40:09.583Z,66.15
2019-05-11T17:42:37.846Z,64.59
2019-05-11T17:45:09.021Z,65.34
2019-05-11T17:47:38.886Z,65.10
2019-05-11T17:50:08.143Z,65.09
2019-05-11T17:52:38.388Z,64.93
2019-05-11T17:55:07.048Z,65.78
2019-05-11T17:57:38.103Z,67.28
2019-05-11T18:00:07.070Z,66.63
2019-05-11T18:02:34.931Z,67.12
2019-05-11T18:05:03.413Z,69.15
2019-05-11T18:07:31.483Z,64.07
2019-05-11T18:09:59.256Z,66.27
2019-05-11T18:12:28.590Z,66.97
2019-05-11T18:14:58.590Z,66.66
2019-05-11T18:17:26.436Z,69.20
2019-05-11T18:19:53.901Z,68.39
2019-05-11T18:22:21.549Z,68.57
2019-05-11T18:24:49.411Z,68.67
2019-05-11T18:27:18.472Z,69.13
2019-05-11T18:29:48.467Z,65.25
2019-05-11T18:32:16.187Z,66.01
2019-05-11T18:34:43.622Z,67.56
2019-05-11T18:37:11.509Z,69.65
2019-05-11T18:39:39.476Z,70.83
2019-05-11T18:42:08.264Z,71.61
2019-05-11T18:44:37.963Z,71.03
2019-05-11T18:47:05.617Z,70.27
2019-05-11T18:49:33.293Z,70.89
2019-05-11T18:52:01.060Z,67.69
2019-05-11T18:54:28.743Z,68.43
2019-05-11T18:56:58.797Z,66.54
2019-05-11T18:59:28.288Z,69.41
2019-05-11T19:01:56.007Z,69.13
2019-05-11T19:04:23.878Z,69.05
2019-05-11T19:06:51.957Z,70.54
2019-05-11T19:09:19.712Z,71.56
2019-05-11T19:11:48.950Z,71.45
2019-05-11T19:14:17.806Z,71.73
2019-05-11T19:16:45.639Z,69.42
2019-05-11T19:19:13.594Z,71.91
2019-05-11T19:21:41.409Z,72.16
2019-05-11T19:24:09.499Z,72.39
2019-05-11T19:26:37.147Z,73.38
2019-05-11T19:29:04.986Z,73.71
2019-05-11T19:31:32.646Z,73.71
2019-05-11T19:34:00.415Z,72.65
2019-05-11T19:36:28.289Z,70.01
2019-05-11T19:38:58.300Z,69.16
2019-05-11T19:41:27.837Z,71.39
2019-05-11T19:43:57.316Z,71.98
2019-05-11T19:46:24.621Z,73.87
2019-05-11T19:48:52.852Z,75.19
2019-05-11T19:51:20.705Z,71.12
2019-05-11T19:53:48.667Z,73.85
2019-05-11T19:56:18.308Z,73.22
2019-05-11T19:58:48.431Z,74.21
2019-05-11T20:01:15.950Z,75.11
2019-05-11T20:03:43.728Z,75.30
2019-05-11T20:06:11.560Z,75.40
2019-05-11T20:08:38.933Z,76.13
2019-05-11T20:11:08.259Z,75.77
2019-05-11T20:13:38.640Z,75.23
2019-05-11T20:16:08.117Z,75.15
2019-05-11T20:18:35.013Z,75.33
2019-05-11T20:21:15.462Z,74.94
2019-05-11T20:23:32.171Z,75.79
2019-05-11T20:25:59.952Z,75.39
2019-05-11T20:28:28.471Z,75.68
2019-05-11T20:30:58.279Z,76.01
2019-05-11T20:33:27.974Z,76.53
2019-05-11T20:35:58.175Z,75.73
2019-05-11T20:38:27.993Z,75.50
2019-05-11T20:40:57.613Z,75.08
2019-05-11T20:43:24.953Z,75.60
2019-05-11T20:45:56.024Z,75.81
2019-05-11T20:48:22.401Z,76.06
2019-05-11T20:50:49.990Z,75.97
2019-05-11T20:53:18.211Z,76.59
2019-05-11T20:55:47.903Z,76.42
2019-05-11T20:58:18.811Z,74.90
2019-05-11T21:00:48.454Z,76.03
2019-05-11T21:03:15.627Z,72.95
2019-05-11T21:05:43.402Z,71.26
2019-05-11T21:08:10.977Z,73.61
2019-05-11T21:10:38.880Z,75.40
2019-05-11T21:13:08.577Z,75.54
2019-05-11T21:15:38.439Z,75.94
2019-05-11T21:18:07.914Z,76.80
2019-05-11T21:20:38.034Z,77.01
2019-05-11T21:23:08.188Z,76.72
2019-05-11T21:25:37.803Z,75.79
2019-05-11T21:28:05.769Z,77.21
2019-05-11T21:30:33.439Z,77.24
2019-05-11T21:33:01.405Z,73.46
2019-05-11T21:35:28.968Z,72.20
2019-05-11T21:37:57.999Z,74.38
2019-05-11T21:40:25.926Z,72.84
2019-05-11T21:42:53.887Z,74.69
2019-05-11T21:45:21.619Z,73.91
2019-05-11T21:47:49.526Z,72.00
2019-05-11T21:50:19.042Z,74.00
2019-05-11T21:52:48.447Z,74.79
2019-05-11T21:55:16.407Z,75.69
2019-05-11T21:57:44.049Z,74.16
2019-05-11T22:00:12.455Z,74.75
2019-05-11T22:02:41.948Z,75.92
2019-05-11T22:05:13.692Z,76.34
2019-05-11T22:07:42.135Z,76.85
2019-05-11T22:10:10.476Z,76.60
2019-05-11T22:12:39.232Z,76.78
2019-05-11T22:15:09.763Z,78.00
2019-05-11T22:17:39.359Z,77.82
2019-05-11T22:20:08.470Z,78.33
2019-05-11T22:22:38.575Z,77.38
2019-05-11T22:25:07.869Z,76.21
2019-05-11T22:27:38.390Z,77.19
2019-05-11T22:30:08.476Z,78.83
2019-05-11T22:32:38.498Z,78.83
2019-05-11T22:35:07.443Z,78.42
2019-05-11T22:37:35.096Z,78.64
2019-05-11T22:40:04.573Z,79.28
2019-05-11T22:42:32.471Z,79.15
2019-05-11T22:45:00.336Z,79.56
2019-05-11T22:47:28.466Z,79.66
2019-05-11T22:49:58.319Z,79.83
2019-05-11T22:52:36.144Z,80.28
2019-05-11T22:54:59.036Z,80.04
2019-05-11T22:57:27.036Z,80.64
2019-05-11T22:59:54.709Z,80.60
2019-05-11T23:02:22.155Z,80.46
2019-05-11T23:04:50.340Z,80.75
2019-05-11T23:07:18.589Z,81.31
2019-05-11T23:09:46.776Z,81.37
2019-05-11T23:12:14.442Z,81.55
2019-05-11T23:14:42.202Z,81.43
2019-05-11T23:17:09.644Z,81.83
2019-05-11T23:19:38.253Z,81.99
2019-05-11T23:22:08.254Z,82.08
2019-05-11T23:24:35.929Z,82.13
2019-05-11T23:27:03.897Z,82.85
2019-05-11T23:29:31.632Z,82.77
2019-05-11T23:31:59.417Z,83.34
2019-05-11T23:34:28.241Z,83.09
2019-05-11T23:36:55.987Z,82.63
2019-05-11T23:39:23.846Z,83.04
2019-05-11T23:41:51.708Z,83.36
2019-05-11T23:44:19.460Z,83.21
2019-05-11T23:46:47.871Z,82.76
2019-05-11T23:49:17.991Z,83.26
2019-05-11T23:51:47.762Z,83.59
2019-05-11T23:54:15.447Z,82.82
2019-05-11T23:56:43.213Z,83.11
2019-05-11T23:59:11.062Z,83.47
